createdAt,value
2023-01-25T00:00:48.057Z,4.10
2023-01-25T00:03:15.792Z,4.10
2023-01-25T00:05:43.482Z,4.17
2023-01-25T00:08:11.145Z,4.43
2023-01-25T00:10:38.930Z,5.03
2023-01-25T00:13:06.628Z,5.40
2023-01-25T00:15:34.285Z,5.10
2023-01-25T00:18:03.264Z,5.03
2023-01-25T00:20:30.867Z,4.77
2023-01-25T00:22:58.520Z,5.30
2023-01-25T00:25:26.285Z,5.50
2023-01-25T00:27:53.950Z,6.30
2023-01-25T00:30:21.838Z,6.20
2023-01-25T00:32:55.263Z,5.30
2023-01-25T00:35:24.313Z,5.07
2023-01-25T00:37:54.023Z,5.23
2023-01-25T00:40:21.714Z,5.03
2023-01-25T00:42:49.324Z,4.63
2023-01-25T00:45:17.550Z,5.03
2023-01-25T00:47:45.210Z,4.77
2023-01-25T00:50:12.868Z,4.43
2023-01-25T00:52:42.260Z,4.80
2023-01-25T00:55:11.016Z,4.40
2023-01-25T00:57:38.694Z,4.30
2023-01-25T01:00:07.680Z,4.57
2023-01-25T01:02:35.339Z,4.40
2023-01-25T01:05:03.034Z,4.20
2023-01-25T01:07:30.727Z,4.53
2023-01-25T01:10:00.297Z,4.00
2023-01-25T01:12:27.985Z,4.13
2023-01-25T01:14:56.619Z,3.63
2023-01-25T01:17:24.273Z,4.30
2023-01-25T01:19:51.898Z,3.73
2023-01-25T01:22:19.571Z,4.37
2023-01-25T01:24:48.648Z,4.00
2023-01-25T01:27:17.740Z,3.53
2023-01-25T01:29:45.344Z,4.10
2023-01-25T01:32:13.209Z,3.90
2023-01-25T01:34:40.918Z,3.73
2023-01-25T01:37:08.602Z,3.80
2023-01-25T01:39:36.224Z,4.20
2023-01-25T01:42:03.915Z,3.63
2023-01-25T01:44:48.301Z,3.93
2023-01-25T01:47:21.322Z,3.80
2023-01-25T01:49:54.203Z,3.97
2023-01-25T01:52:26.050Z,3.80
2023-01-25T01:54:59.367Z,3.60
2023-01-25T01:57:31.379Z,3.70
2023-01-25T02:00:03.864Z,3.80
2023-01-25T02:02:31.573Z,3.70
2023-01-25T02:05:02.238Z,3.50
2023-01-25T02:07:35.130Z,3.70
2023-01-25T02:10:05.678Z,3.33
2023-01-25T02:12:33.753Z,3.53
2023-01-25T02:15:02.743Z,3.60
2023-01-25T02:17:33.073Z,3.40
2023-01-25T02:20:07.839Z,3.47
2023-01-25T02:22:46.159Z,3.23
2023-01-25T02:25:16.232Z,3.40
2023-01-25T02:27:51.048Z,3.10
2023-01-25T02:30:18.930Z,3.60
2023-01-25T02:32:46.580Z,3.20
2023-01-25T02:35:20.494Z,3.33
2023-01-25T02:37:48.201Z,3.20
2023-01-25T02:40:17.883Z,3.43
2023-01-25T02:42:46.861Z,3.10
2023-01-25T02:45:17.627Z,3.57
2023-01-25T02:47:45.259Z,3.20
2023-01-25T02:50:15.080Z,2.70
2023-01-25T02:52:43.589Z,3.83
2023-01-25T02:55:11.530Z,3.17
2023-01-25T02:57:40.566Z,3.13
2023-01-25T03:00:09.551Z,3.30
2023-01-25T03:02:37.390Z,3.03
2023-01-25T03:05:05.840Z,3.10
2023-01-25T03:07:33.644Z,3.30
2023-01-25T03:10:01.255Z,3.27
2023-01-25T03:12:28.900Z,3.20
2023-01-25T03:14:57.863Z,3.37
2023-01-25T03:17:25.870Z,3.20
2023-01-25T03:19:54.005Z,3.40
2023-01-25T03:22:21.692Z,3.03
2023-01-25T03:24:49.469Z,2.80
2023-01-25T03:27:18.456Z,3.20
2023-01-25T03:29:46.769Z,3.40
2023-01-25T03:32:15.804Z,3.20
2023-01-25T03:34:43.435Z,3.20
2023-01-25T03:37:11.246Z,2.80
2023-01-25T03:39:38.869Z,2.80
2023-01-25T03:42:06.618Z,3.17
2023-01-25T03:44:34.340Z,2.97
2023-01-25T03:47:01.986Z,2.80
2023-01-25T03:49:31.017Z,3.20
2023-01-25T03:51:58.954Z,3.50
2023-01-25T03:54:26.574Z,2.90
2023-01-25T03:56:54.204Z,2.90
2023-01-25T03:59:21.879Z,2.90
2023-01-25T04:01:49.757Z,3.17
2023-01-25T04:04:17.438Z,3.17
2023-01-25T04:06:46.480Z,2.87
2023-01-25T04:09:14.713Z,2.87
2023-01-25T04:11:42.822Z,2.60
2023-01-25T04:14:11.893Z,3.10
2023-01-25T04:16:39.582Z,3.03
2023-01-25T04:19:07.330Z,2.93
2023-01-25T04:21:35.352Z,3.07
2023-01-25T04:24:04.767Z,3.00
2023-01-25T04:26:32.418Z,3.00
2023-01-25T04:29:00.068Z,2.97
2023-01-25T04:31:27.877Z,3.00
2023-01-25T04:33:56.450Z,2.80
2023-01-25T04:36:24.100Z,3.07
2023-01-25T04:38:51.695Z,3.13
2023-01-25T04:41:20.689Z,2.83
2023-01-25T04:43:48.307Z,2.97
2023-01-25T04:46:15.970Z,2.77
2023-01-25T04:48:44.703Z,2.80
2023-01-25T04:51:13.516Z,2.77
2023-01-25T04:53:41.168Z,2.50
2023-01-25T04:56:08.875Z,2.70
2023-01-25T04:58:37.906Z,3.00
2023-01-25T05:01:05.984Z,3.23
2023-01-25T05:03:34.231Z,2.50
2023-01-25T05:06:01.844Z,3.30
2023-01-25T05:08:29.479Z,2.80
2023-01-25T05:10:57.187Z,2.80
2023-01-25T05:13:24.919Z,2.80
2023-01-25T05:15:53.873Z,2.50
2023-01-25T05:18:21.499Z,2.50
2023-01-25T05:20:49.165Z,2.93
2023-01-25T05:23:16.768Z,2.70
2023-01-25T05:26:01.829Z,2.70
2023-01-25T05:28:29.453Z,2.60
2023-01-25T05:30:58.719Z,2.43
2023-01-25T05:33:26.819Z,2.67
2023-01-25T05:35:56.149Z,2.77
2023-01-25T05:38:23.803Z,2.67
2023-01-25T05:40:51.466Z,2.30
2023-01-25T05:43:19.090Z,3.00
2023-01-25T05:45:53.392Z,2.97
2023-01-25T05:48:22.449Z,2.47
2023-01-25T05:50:50.111Z,2.50
2023-01-25T05:53:17.747Z,2.90
2023-01-25T05:55:45.353Z,2.40
2023-01-25T05:58:12.995Z,2.90
2023-01-25T06:00:40.645Z,2.87
2023-01-25T06:03:08.391Z,2.47
2023-01-25T06:05:37.683Z,2.53
2023-01-25T06:08:05.463Z,2.60
2023-01-25T06:10:33.135Z,2.43
2023-01-25T06:13:01.198Z,2.70
2023-01-25T06:15:28.869Z,2.87
2023-01-25T06:17:57.073Z,3.00
2023-01-25T06:20:24.691Z,3.00
2023-01-25T06:22:53.771Z,2.33
2023-01-25T06:25:21.448Z,2.90
2023-01-25T06:27:49.076Z,2.80
2023-01-25T06:30:17.213Z,2.40
2023-01-25T06:32:44.857Z,2.63
2023-01-25T06:35:12.869Z,2.50
2023-01-25T06:37:40.488Z,2.77
2023-01-25T06:40:10.724Z,2.30
2023-01-25T06:42:38.361Z,2.83
2023-01-25T06:45:07.710Z,2.40
2023-01-25T06:47:35.460Z,2.67
2023-01-25T06:50:03.143Z,2.60
2023-01-25T06:52:31.876Z,2.87
2023-01-25T06:54:59.472Z,2.43
2023-01-25T06:57:29.369Z,2.83
2023-01-25T06:59:57.361Z,3.10
2023-01-25T07:02:25.016Z,2.27
2023-01-25T07:04:52.664Z,2.47
2023-01-25T07:07:20.311Z,2.70
2023-01-25T07:09:47.921Z,2.70
2023-01-25T07:12:15.516Z,2.43
2023-01-25T07:14:44.587Z,2.40
2023-01-25T07:17:12.228Z,2.40
2023-01-25T07:19:39.884Z,2.70
2023-01-25T07:22:07.529Z,2.40
2023-01-25T07:24:35.136Z,2.67
2023-01-25T07:27:02.767Z,2.50
2023-01-25T07:29:30.726Z,2.70
2023-01-25T07:31:59.696Z,2.63
2023-01-25T07:34:28.920Z,2.40
2023-01-25T07:36:56.568Z,2.77
2023-01-25T07:39:24.193Z,2.73
2023-01-25T07:41:51.825Z,2.80
2023-01-25T07:44:23.180Z,2.57
2023-01-25T07:46:50.816Z,2.40
2023-01-25T07:49:19.949Z,2.50
2023-01-25T07:51:47.583Z,2.30
2023-01-25T07:54:15.449Z,2.50
2023-01-25T07:56:43.079Z,2.50
2023-01-25T07:59:11.669Z,2.60
2023-01-25T08:01:40.382Z,2.50
2023-01-25T08:04:08.555Z,2.27
2023-01-25T08:06:39.662Z,2.37
2023-01-25T08:09:12.040Z,2.23
2023-01-25T08:11:39.843Z,2.40
2023-01-25T08:14:08.270Z,2.50
2023-01-25T08:16:35.928Z,2.50
2023-01-25T08:19:04.301Z,2.20
2023-01-25T08:21:33.945Z,2.27
2023-01-25T08:24:05.091Z,2.77
2023-01-25T08:26:33.309Z,2.20
2023-01-25T08:29:01.133Z,2.20
2023-01-25T08:31:30.610Z,2.23
2023-01-25T08:33:58.961Z,2.20
2023-01-25T08:36:28.151Z,2.50
2023-01-25T08:38:57.393Z,2.50
2023-01-25T08:41:27.425Z,2.20
2023-01-25T08:43:56.437Z,2.37
2023-01-25T08:46:27.227Z,2.80
2023-01-25T08:48:56.475Z,2.27
2023-01-25T08:51:25.551Z,2.40
2023-01-25T08:53:53.752Z,2.63
2023-01-25T08:56:22.245Z,2.37
2023-01-25T08:58:51.685Z,2.40
2023-01-25T09:01:22.025Z,2.27
2023-01-25T09:03:51.792Z,2.77
2023-01-25T09:06:20.910Z,2.33
2023-01-25T09:08:49.146Z,2.37
2023-01-25T09:11:18.822Z,2.37
2023-01-25T09:13:48.459Z,1.93
2023-01-25T09:16:20.068Z,2.40
2023-01-25T09:18:49.792Z,2.50
2023-01-25T09:21:19.451Z,2.30
2023-01-25T09:23:57.555Z,2.10
2023-01-25T09:26:32.660Z,2.67
2023-01-25T09:29:00.326Z,2.60
2023-01-25T09:31:30.464Z,2.50
2023-01-25T09:33:58.619Z,2.47
2023-01-25T09:36:26.720Z,2.13
2023-01-25T09:38:54.502Z,2.13
2023-01-25T09:41:33.640Z,2.23
2023-01-25T09:44:15.172Z,2.27
2023-01-25T09:46:48.898Z,2.30
2023-01-25T09:49:50.714Z,2.30
2023-01-25T09:52:37.440Z,2.30
2023-01-25T09:55:14.565Z,2.30
2023-01-25T09:57:45.896Z,2.40
2023-01-25T10:00:18.902Z,2.50
2023-01-25T10:02:52.962Z,2.47
2023-01-25T10:05:23.913Z,2.33
2023-01-25T10:07:59.065Z,2.60
2023-01-25T10:10:33.768Z,2.17
2023-01-25T10:13:03.026Z,2.40
2023-01-25T10:15:36.954Z,2.30
2023-01-25T10:18:18.220Z,2.00
2023-01-25T10:20:53.151Z,2.30
2023-01-25T10:23:57.663Z,2.07
2023-01-25T10:26:29.765Z,2.40
2023-01-25T10:29:03.816Z,2.33
2023-01-25T10:31:41.066Z,2.40
2023-01-25T10:34:19.335Z,2.10
2023-01-25T10:36:49.969Z,2.17
2023-01-25T10:39:18.969Z,2.30
2023-01-25T10:41:51.876Z,2.47
2023-01-25T10:44:25.819Z,2.27
2023-01-25T10:46:58.385Z,2.30
2023-01-25T10:49:31.863Z,2.10
2023-01-25T10:52:17.088Z,2.40
2023-01-25T10:54:45.267Z,2.40
2023-01-25T10:57:17.432Z,2.00
2023-01-25T10:59:47.429Z,2.17
2023-01-25T11:02:41.250Z,2.00
2023-01-25T11:05:31.724Z,1.73
2023-01-25T11:08:00.352Z,2.03
2023-01-25T11:10:33.590Z,2.07
2023-01-25T11:13:22.856Z,2.10
2023-01-25T11:15:53.303Z,2.40
2023-01-25T11:18:24.106Z,2.20
2023-01-25T11:21:07.908Z,2.10
2023-01-25T11:23:35.652Z,1.93
2023-01-25T11:26:15.323Z,2.20
2023-01-25T11:28:44.464Z,2.00
2023-01-25T11:31:14.746Z,1.90
2023-01-25T11:33:43.171Z,2.20
2023-01-25T11:36:21.645Z,2.00
2023-01-25T11:39:01.795Z,2.10
2023-01-25T11:41:39.644Z,2.23
2023-01-25T11:44:32.328Z,2.17
2023-01-25T11:47:10.023Z,2.13
2023-01-25T11:49:51.500Z,2.00
2023-01-25T11:52:30.923Z,2.03
2023-01-25T11:55:09.413Z,2.00
2023-01-25T11:57:53.715Z,2.57
2023-01-25T12:00:36.174Z,1.90
2023-01-25T12:03:45.982Z,2.47
2023-01-25T12:06:18.494Z,2.30
2023-01-25T12:09:03.687Z,2.57
2023-01-25T12:11:48.248Z,1.90
2023-01-25T12:14:29.181Z,2.20
2023-01-25T12:17:16.327Z,2.40
2023-01-25T12:20:08.611Z,2.10
2023-01-25T12:22:46.800Z,2.30
2023-01-25T12:25:25.471Z,1.87
2023-01-25T12:28:08.392Z,2.57
2023-01-25T12:30:44.620Z,2.03
2023-01-25T12:33:17.329Z,2.10
2023-01-25T12:35:50.821Z,1.90
2023-01-25T12:38:27.520Z,2.30
2023-01-25T12:41:00.449Z,2.17
2023-01-25T12:43:33.671Z,2.10
2023-01-25T12:46:05.996Z,2.13
2023-01-25T12:48:41.264Z,2.20
2023-01-25T12:51:10.218Z,2.63
2023-01-25T12:53:40.477Z,2.50
2023-01-25T12:56:12.755Z,2.20
2023-01-25T12:58:45.091Z,2.07
2023-01-25T13:01:19.611Z,2.00
2023-01-25T13:04:04.462Z,2.37
2023-01-25T13:06:40.089Z,2.00
2023-01-25T13:09:14.969Z,2.03
2023-01-25T13:11:45.906Z,1.87
2023-01-25T13:14:36.837Z,2.23
2023-01-25T13:17:23.055Z,1.80
2023-01-25T13:19:51.852Z,2.03
2023-01-25T13:23:01.987Z,2.10
2023-01-25T13:25:29.642Z,2.00
2023-01-25T13:28:42.382Z,2.40
2023-01-25T13:31:10.142Z,2.00
2023-01-25T13:33:37.936Z,1.90
2023-01-25T13:36:39.816Z,2.03
2023-01-25T13:39:43.220Z,2.20
2023-01-25T13:42:22.493Z,2.27
2023-01-25T13:44:54.659Z,2.20
2023-01-25T13:47:24.334Z,1.80
2023-01-25T13:49:58.262Z,2.10
2023-01-25T13:52:27.806Z,2.10
2023-01-25T13:54:57.839Z,1.97
2023-01-25T13:57:27.449Z,2.27
2023-01-25T14:00:13.336Z,1.93
2023-01-25T14:02:45.673Z,2.03
2023-01-25T14:05:22.288Z,2.20
2023-01-25T14:07:52.251Z,2.20
2023-01-25T14:10:24.064Z,1.90
2023-01-25T14:12:52.936Z,2.13
2023-01-25T14:15:24.623Z,1.80
2023-01-25T14:18:13.507Z,1.87
2023-01-25T14:20:41.516Z,2.20
2023-01-25T14:23:22.141Z,2.30
2023-01-25T14:25:50.059Z,2.20
2023-01-25T14:28:19.126Z,2.00
2023-01-25T14:30:52.699Z,2.00
2023-01-25T14:33:23.792Z,2.30
2023-01-25T14:35:56.279Z,1.90
2023-01-25T14:38:27.729Z,2.00
2023-01-25T14:40:58.418Z,2.10
2023-01-25T14:43:27.288Z,2.40
2023-01-25T14:45:56.388Z,2.50
2023-01-25T14:48:48.327Z,1.90
2023-01-25T14:51:21.458Z,2.10
2023-01-25T14:53:56.798Z,2.10
2023-01-25T14:56:34.825Z,1.93
2023-01-25T14:59:03.521Z,2.37
2023-01-25T15:01:39.312Z,2.47
2023-01-25T15:04:12.900Z,2.43
2023-01-25T15:06:48.764Z,2.20
2023-01-25T15:09:36.810Z,2.30
2023-01-25T15:12:06.061Z,2.30
2023-01-25T15:14:34.035Z,2.20
2023-01-25T15:17:03.067Z,2.43
2023-01-25T15:19:32.367Z,2.43
2023-01-25T15:22:01.515Z,2.40
2023-01-25T15:24:29.360Z,2.70
2023-01-25T15:26:57.047Z,2.43
2023-01-25T15:29:27.107Z,2.53
2023-01-25T15:31:57.312Z,2.60
2023-01-25T15:34:32.450Z,3.00
2023-01-25T15:37:00.136Z,2.63
2023-01-25T15:39:27.949Z,2.40
2023-01-25T15:41:55.598Z,2.60
2023-01-25T15:44:23.220Z,3.00
2023-01-25T15:46:53.562Z,2.77
2023-01-25T15:49:26.161Z,2.70
2023-01-25T15:51:55.785Z,2.83
2023-01-25T15:54:24.293Z,3.47
2023-01-25T15:56:55.765Z,3.13
2023-01-25T15:59:23.598Z,2.63
2023-01-25T16:01:51.284Z,2.90
2023-01-25T16:04:19.043Z,3.20
2023-01-25T16:06:50.049Z,2.90
2023-01-25T16:09:21.784Z,3.10
2023-01-25T16:11:52.018Z,2.77
2023-01-25T16:14:20.065Z,2.77
2023-01-25T16:16:50.428Z,3.40
2023-01-25T16:19:20.305Z,3.40
2023-01-25T16:21:48.056Z,3.27
2023-01-25T16:24:15.921Z,3.40
2023-01-25T16:26:51.397Z,3.53
2023-01-25T16:29:19.101Z,3.30
2023-01-25T16:31:46.781Z,3.70
2023-01-25T16:34:14.551Z,3.13
2023-01-25T16:36:42.446Z,3.33
2023-01-25T16:39:16.368Z,4.00
2023-01-25T16:41:44.199Z,3.87
2023-01-25T16:44:13.405Z,3.10
2023-01-25T16:46:41.262Z,3.77
2023-01-25T16:49:09.970Z,3.50
2023-01-25T16:51:38.665Z,2.90
2023-01-25T16:54:06.761Z,3.20
2023-01-25T16:56:34.501Z,3.30
2023-01-25T16:59:04.212Z,3.70
2023-01-25T17:01:33.381Z,3.17
2023-01-25T17:04:01.049Z,4.13
2023-01-25T17:06:30.782Z,3.43
2023-01-25T17:09:02.174Z,3.30
2023-01-25T17:11:32.893Z,3.80
2023-01-25T17:14:01.119Z,3.80
2023-01-25T17:16:31.053Z,3.90
2023-01-25T17:19:05.220Z,3.90
2023-01-25T17:21:33.826Z,3.47
2023-01-25T17:24:03.217Z,4.17
2023-01-25T17:26:32.070Z,3.87
2023-01-25T17:29:02.828Z,3.97
2023-01-25T17:31:32.630Z,4.10
2023-01-25T17:34:05.131Z,3.37
2023-01-25T17:36:32.800Z,3.60
2023-01-25T17:39:03.009Z,4.30
2023-01-25T17:41:30.660Z,3.40
2023-01-25T17:43:58.637Z,3.53
2023-01-25T17:46:29.841Z,3.20
2023-01-25T17:48:58.256Z,3.40
2023-01-25T17:51:27.327Z,3.93
2023-01-25T17:53:55.178Z,3.13
2023-01-25T17:56:22.848Z,3.63
2023-01-25T17:58:51.212Z,3.67
2023-01-25T18:01:21.158Z,3.50
2023-01-25T18:03:50.790Z,3.80
2023-01-25T18:06:20.768Z,3.60
2023-01-25T18:08:51.745Z,3.90
2023-01-25T18:11:21.681Z,3.87
2023-01-25T18:13:51.172Z,3.60
2023-01-25T18:16:21.557Z,4.23
2023-01-25T18:18:50.494Z,3.87
2023-01-25T18:21:22.203Z,3.63
2023-01-25T18:23:52.530Z,3.90
2023-01-25T18:26:22.149Z,3.53
2023-01-25T18:28:51.972Z,3.50
2023-01-25T18:31:19.863Z,3.20
2023-01-25T18:33:47.581Z,3.97
2023-01-25T18:36:15.772Z,3.60
2023-01-25T18:38:43.432Z,3.70
2023-01-25T18:41:12.882Z,3.80
2023-01-25T18:43:40.506Z,3.67
2023-01-25T18:46:08.318Z,3.73
2023-01-25T18:48:36.248Z,3.40
2023-01-25T18:51:07.984Z,4.40
2023-01-25T18:53:37.173Z,3.70
2023-01-25T18:56:07.250Z,3.37
2023-01-25T18:58:38.060Z,4.33
2023-01-25T19:01:08.850Z,3.90
2023-01-25T19:03:36.748Z,3.67
2023-01-25T19:06:05.129Z,4.40
2023-01-25T19:08:35.534Z,3.93
2023-01-25T19:11:05.945Z,4.37
2023-01-25T19:13:36.428Z,3.97
2023-01-25T19:16:06.687Z,3.90
2023-01-25T19:18:35.394Z,4.00
2023-01-25T19:21:03.848Z,3.90
2023-01-25T19:23:34.377Z,4.10
2023-01-25T19:26:02.116Z,4.03
2023-01-25T19:28:30.120Z,3.73
2023-01-25T19:31:06.940Z,3.83
2023-01-25T19:33:34.699Z,4.10
2023-01-25T19:36:04.282Z,4.60
2023-01-25T19:38:32.572Z,4.00
2023-01-25T19:41:04.922Z,4.67
2023-01-25T19:43:32.620Z,3.50
2023-01-25T19:48:32.260Z,3.80
2023-01-25T19:51:08.095Z,4.03
2023-01-25T19:53:35.822Z,4.17
2023-01-25T19:56:04.160Z,4.17
2023-01-25T19:58:32.369Z,4.00
2023-01-25T20:01:06.964Z,4.33
2023-01-25T20:03:36.951Z,4.10
2023-01-25T20:06:07.045Z,4.50
2023-01-25T20:08:36.543Z,4.13
2023-01-25T20:11:07.187Z,3.83
2023-01-25T20:13:35.151Z,4.00
2023-01-25T20:16:03.065Z,3.80
2023-01-25T20:18:31.654Z,3.70
2023-01-25T20:21:02.988Z,3.77
2023-01-25T20:23:32.755Z,4.13
2023-01-25T20:26:02.125Z,4.30
2023-01-25T20:28:30.290Z,4.33
2023-01-25T20:30:59.359Z,3.93
2023-01-25T20:33:27.023Z,4.50
2023-01-25T20:35:59.167Z,4.23
2023-01-25T20:38:31.195Z,3.90
2023-01-25T20:41:02.479Z,4.17
2023-01-25T20:43:31.402Z,4.00
2023-01-25T20:45:59.906Z,4.00
2023-01-25T20:48:28.216Z,4.77
2023-01-25T20:51:02.012Z,3.90
2023-01-25T20:53:31.156Z,3.90
2023-01-25T20:55:59.943Z,4.17
2023-01-25T20:58:27.699Z,3.80
2023-01-25T21:00:56.303Z,4.03
2023-01-25T21:03:24.352Z,4.03
2023-01-25T21:05:52.349Z,4.27
2023-01-25T21:08:20.712Z,4.30
2023-01-25T21:10:51.722Z,4.40
2023-01-25T21:13:20.368Z,4.10
2023-01-25T21:15:59.466Z,4.47
2023-01-25T21:18:29.440Z,3.60
2023-01-25T21:21:02.071Z,4.40
2023-01-25T21:23:29.900Z,4.00
2023-01-25T21:25:58.863Z,4.73
2023-01-25T21:28:26.557Z,4.60
2023-01-25T21:30:54.449Z,4.60
2023-01-25T21:33:22.167Z,3.50
2023-01-25T21:35:52.616Z,4.10
2023-01-25T21:38:21.964Z,4.03
2023-01-25T21:40:49.583Z,3.70
2023-01-25T21:43:18.916Z,4.40
2023-01-25T21:46:04.163Z,4.10
2023-01-25T21:48:49.616Z,4.30
2023-01-25T21:51:34.963Z,4.20
2023-01-25T21:54:02.646Z,3.90
2023-01-25T21:56:30.755Z,4.40
2023-01-25T21:58:59.736Z,3.73
2023-01-25T22:01:27.412Z,4.20
2023-01-25T22:03:55.115Z,4.17
2023-01-25T22:06:22.756Z,4.33
2023-01-25T22:08:50.443Z,3.97
2023-01-25T22:11:18.093Z,4.00
2023-01-25T22:13:45.987Z,4.23
2023-01-25T22:16:15.371Z,4.00
2023-01-25T22:18:44.249Z,3.90
2023-01-25T22:21:16.907Z,3.97
2023-01-25T22:23:45.479Z,4.23
2023-01-25T22:26:15.353Z,3.97
2023-01-25T22:28:46.836Z,3.90
2023-01-25T22:31:17.859Z,4.20
2023-01-25T22:33:45.603Z,3.80
2023-01-25T22:36:15.693Z,4.33
2023-01-25T22:38:43.837Z,3.70
2023-01-25T22:41:13.478Z,4.00
2023-01-25T22:43:41.892Z,3.63
2023-01-25T22:46:13.289Z,3.60
2023-01-25T22:48:42.466Z,3.53
2023-01-25T22:51:13.361Z,4.20
2023-01-25T22:53:40.998Z,3.80
2023-01-25T22:56:11.163Z,3.90
2023-01-25T22:58:41.481Z,4.10
2023-01-25T23:01:10.261Z,4.17
2023-01-25T23:03:38.144Z,4.07
2023-01-25T23:06:09.385Z,3.60
2023-01-25T23:08:37.894Z,3.67
2023-01-25T23:11:07.824Z,3.70
2023-01-25T23:13:37.040Z,3.50
2023-01-25T23:16:05.927Z,3.93
2023-01-25T23:18:51.837Z,4.03
2023-01-25T23:21:22.832Z,3.70
2023-01-25T23:23:50.961Z,3.73
2023-01-25T23:26:18.771Z,3.70
2023-01-25T23:28:51.121Z,3.30
2023-01-25T23:31:19.875Z,3.70
2023-01-25T23:33:49.008Z,3.67
2023-01-25T23:36:18.736Z,3.70
2023-01-25T23:38:48.520Z,3.57
2023-01-25T23:41:17.493Z,4.17
2023-01-25T23:43:45.876Z,3.70
2023-01-25T23:46:15.204Z,3.77
2023-01-25T23:48:43.264Z,4.10
2023-01-25T23:51:11.965Z,3.90
2023-01-25T23:53:40.923Z,3.87
2023-01-25T23:56:13.779Z,3.27
2023-01-25T23:58:42.582Z,3.87
